ěÝzenÝ letovÚho provozu ╚eskÚ republiky
OPMET data - Ceska Republika Aktualizace: 18.05.2022 00:30:30  UTC
SIGMET / AIRMET - NIL
Warning / Vystraha - NIL
AIREP - NIL
REG QNH
REGIONAL QNH FORECAST ISSUED 2022-05-17 23:43 AREA VALID FM/TL QNH/HPA/ : LKAA 180000/180300 1020 =
 
METAR / SPECI
METAR LKBC NIL
METAR LKCS 180030Z AUTO 22004KT CAVOK 09/09 Q1024=
METAR LKCV 180030Z VRB01KT CAVOK 08/07 Q1024 NOSIG RMK BLU BLU=
METAR LKKB 180030Z VRB02KT CAVOK 12/11 Q1023 RMK BLU=
METAR LKKU NIL
METAR LKKV 180000Z 05002KT 9999 0800E R29/1600N BCFG NSC 09/08 Q1024=
METAR LKLN 180030Z AUTO 00000KT 3600 BR NCD 11/10 Q1024=
METAR LKMT 180030Z 03005KT CAVOK 07/07 Q1023 NOSIG=
METAR LKNA 180030Z 33005KT CAVOK 10/09 Q1024 RMK BLU=
METAR LKPD 180030Z 12002KT CAVOK 08/08 Q1024 RMK BLACK=
METAR LKPJ 180030Z AUTO 32006KT 9999 FEW200/// 11/08 Q1023=
METAR LKPR 180030Z 13003KT CAVOK 13/11 Q1023 NOSIG RMK REG QNH 1020=
METAR LKTB 180030Z 03003KT 350V070 CAVOK 11/08 Q1023 NOSIG=
METAR LKVO NIL
TAF
TAF LKBC NIL
TAF LKCS NIL
TAF LKCV 172300Z 1800/1900 VRB02KT CAVOK      TEMPO 1802/1807 4000 MIFG BR      PROB40 TEMPO 1803/1806 0300 FG VV001      BECMG 1806/1808 09006KT=
TAF LKKB 172300Z 1800/1900 VRB02KT CAVOK      PROB30 TEMPO 1800/1804 5000 BR      BECMG 1806/1808 10006KT      BECMG 1821/1823 VRB02KT=
TAF LKKU NIL
TAF LKKV 172300Z 1800/1906 VRB02KT 3000 BR NSC      TEMPO 1800/1805 0700 FG SCT001      BECMG 1805/1807 13006KT CAVOK=
TAF LKLN NIL
TAF LKMT 172300Z 1800/1906 05006KT CAVOK      TEMPO 1802/1805 5000 BR NSC      BECMG 1818/1820 20006KT=
TAF LKNA 172300Z 1800/1900 36008KT CAVOK      BECMG 1803/1805 06006KT      BECMG 1811/1813 11008KT=
TAF LKPD NIL
TAF LKPJ NIL
TAF LKPR 172300Z 1800/1906 VRB02KT CAVOK      TEMPO 1802/1805 3000 BR NSC      BECMG 1807/1809 14006KT=
TAF LKTB 172300Z 1800/1906 35006KT CAVOK      BECMG 1806/1808 08008KT=
TAF LKVO NIL